sensor_id;sensor_type;location;lat;lon;timestamp;pressure;altitude;pressure_sealevel;temperature;humidity
17260;BME280;8746;49.230;9.220;2023-08-06T00:00:35;99102.31;;;14.80;100.00
17260;BME280;8746;49.230;9.220;2023-08-06T00:03:00;99092.97;;;14.74;100.00
17260;BME280;8746;49.230;9.220;2023-08-06T00:05:25;99091.72;;;14.67;100.00
17260;BME280;8746;49.230;9.220;2023-08-06T00:07:51;99096.38;;;14.63;100.00
17260;BME280;8746;49.230;9.220;2023-08-06T00:10:17;99095.75;;;14.72;100.00
17260;BME280;8746;49.230;9.220;2023-08-06T00:12:43;99090.75;;;14.68;100.00
17260;BME280;8746;49.230;9.220;2023-08-06T00:15:09;99095.63;;;14.74;100.00
17260;BME280;8746;49.230;9.220;2023-08-06T00:17:35;99095.31;;;14.79;100.00
17260;BME280;8746;49.230;9.220;2023-08-06T00:20:01;99089.16;;;14.78;100.00
17260;BME280;8746;49.230;9.220;2023-08-06T00:22:32;99078.56;;;14.65;100.00
17260;BME280;8746;49.230;9.220;2023-08-06T00:24:58;99079.19;;;14.69;100.00
17260;BME280;8746;49.230;9.220;2023-08-06T00:27:23;99074.81;;;14.68;100.00
17260;BME280;8746;49.230;9.220;2023-08-06T00:29:49;99075.69;;;14.68;100.00
17260;BME280;8746;49.230;9.220;2023-08-06T00:32:14;99076.97;;;14.76;100.00
17260;BME280;8746;49.230;9.220;2023-08-06T00:34:39;99071.53;;;14.77;100.00
17260;BME280;8746;49.230;9.220;2023-08-06T00:37:05;99066.97;;;14.79;100.00
17260;BME280;8746;49.230;9.220;2023-08-06T00:39:30;99066.84;;;14.68;100.00
17260;BME280;8746;49.230;9.220;2023-08-06T00:41:55;99062.91;;;14.61;100.00
17260;BME280;8746;49.230;9.220;2023-08-06T00:44:21;99058.41;;;14.50;100.00
17260;BME280;8746;49.230;9.220;2023-08-06T00:46:46;99056.88;;;14.58;100.00
17260;BME280;8746;49.230;9.220;2023-08-06T00:49:12;99056.44;;;14.65;100.00
17260;BME280;8746;49.230;9.220;2023-08-06T00:51:37;99053.50;;;14.69;100.00
17260;BME280;8746;49.230;9.220;2023-08-06T00:54:03;99049.53;;;14.75;100.00
17260;BME280;8746;49.230;9.220;2023-08-06T00:56:28;99052.88;;;14.66;100.00
17260;BME280;8746;49.230;9.220;2023-08-06T00:58:54;99049.16;;;14.68;100.00
17260;BME280;8746;49.230;9.220;2023-08-06T01:01:20;99041.25;;;14.80;100.00
17260;BME280;8746;49.230;9.220;2023-08-06T01:03:46;99044.31;;;14.86;100.00
17260;BME280;8746;49.230;9.220;2023-08-06T01:06:11;99035.16;;;14.90;100.00
17260;BME280;8746;49.230;9.220;2023-08-06T01:08:48;99035.38;;;14.87;100.00
17260;BME280;8746;49.230;9.220;2023-08-06T01:11:44;99032.50;;;14.90;100.00
17260;BME280;8746;49.230;9.220;2023-08-06T01:14:18;99036.13;;;14.89;100.00
17260;BME280;8746;49.230;9.220;2023-08-06T01:16:50;99030.69;;;14.91;100.00
17260;BME280;8746;49.230;9.220;2023-08-06T01:19:17;99023.78;;;14.88;100.00
17260;BME280;8746;49.230;9.220;2023-08-06T01:21:42;99016.16;;;14.84;100.00
17260;BME280;8746;49.230;9.220;2023-08-06T01:24:08;99005.28;;;14.76;100.00
17260;BME280;8746;49.230;9.220;2023-08-06T01:26:39;99006.09;;;14.76;100.00
17260;BME280;8746;49.230;9.220;2023-08-06T01:29:15;99005.16;;;14.64;100.00
17260;BME280;8746;49.230;9.220;2023-08-06T01:31:44;99007.16;;;14.61;100.00
17260;BME280;8746;49.230;9.220;2023-08-06T01:34:17;98997.84;;;14.68;100.00
17260;BME280;8746;49.230;9.220;2023-08-06T01:36:46;98997.19;;;14.77;100.00
17260;BME280;8746;49.230;9.220;2023-08-06T01:39:11;98999.28;;;14.85;100.00
17260;BME280;8746;49.230;9.220;2023-08-06T01:41:36;98993.75;;;14.88;100.00
17260;BME280;8746;49.230;9.220;2023-08-06T01:44:02;98991.31;;;14.85;100.00
17260;BME280;8746;49.230;9.220;2023-08-06T01:46:27;98990.13;;;14.89;100.00
17260;BME280;8746;49.230;9.220;2023-08-06T01:48:52;98989.78;;;14.94;100.00
17260;BME280;8746;49.230;9.220;2023-08-06T01:51:17;98981.09;;;14.92;100.00
17260;BME280;8746;49.230;9.220;2023-08-06T01:53:43;98982.88;;;14.91;100.00
17260;BME280;8746;49.230;9.220;2023-08-06T01:56:08;98978.19;;;14.95;100.00
17260;BME280;8746;49.230;9.220;2023-08-06T01:58:34;98982.06;;;14.90;100.00
17260;BME280;8746;49.230;9.220;2023-08-06T02:01:01;98982.06;;;14.90;100.00
17260;BME280;8746;49.230;9.220;2023-08-06T02:03:26;98975.66;;;14.93;100.00
17260;BME280;8746;49.230;9.220;2023-08-06T02:05:53;98973.91;;;15.05;100.00
17260;BME280;8746;49.230;9.220;2023-08-06T02:08:18;98969.56;;;15.04;100.00
17260;BME280;8746;49.230;9.220;2023-08-06T02:10:44;98967.72;;;15.04;100.00
17260;BME280;8746;49.230;9.220;2023-08-06T02:13:10;98965.19;;;15.03;100.00
17260;BME280;8746;49.230;9.220;2023-08-06T02:15:35;98957.22;;;15.03;100.00
17260;BME280;8746;49.230;9.220;2023-08-06T02:18:00;98953.75;;;15.02;100.00
17260;BME280;8746;49.230;9.220;2023-08-06T02:20:26;98954.59;;;15.03;100.00
17260;BME280;8746;49.230;9.220;2023-08-06T02:22:51;98953.84;;;15.01;100.00
17260;BME280;8746;49.230;9.220;2023-08-06T02:25:17;98956.75;;;14.98;100.00
17260;BME280;8746;49.230;9.220;2023-08-06T02:27:42;98953.47;;;14.94;100.00
17260;BME280;8746;49.230;9.220;2023-08-06T02:30:07;98949.72;;;14.97;100.00
17260;BME280;8746;49.230;9.220;2023-08-06T02:32:33;98954.91;;;14.98;100.00
17260;BME280;8746;49.230;9.220;2023-08-06T02:35:01;98938.66;;;15.03;100.00
17260;BME280;8746;49.230;9.220;2023-08-06T02:37:27;98931.16;;;15.08;100.00
17260;BME280;8746;49.230;9.220;2023-08-06T02:39:52;98925.72;;;15.10;100.00
17260;BME280;8746;49.230;9.220;2023-08-06T02:42:17;98917.66;;;15.11;100.00
17260;BME280;8746;49.230;9.220;2023-08-06T02:44:43;98915.00;;;15.11;100.00
17260;BME280;8746;49.230;9.220;2023-08-06T02:47:08;98922.84;;;15.13;100.00
17260;BME280;8746;49.230;9.220;2023-08-06T02:49:33;98916.47;;;15.15;100.00
17260;BME280;8746;49.230;9.220;2023-08-06T02:51:59;98918.13;;;15.05;100.00
17260;BME280;8746;49.230;9.220;2023-08-06T02:54:24;98916.44;;;15.04;100.00
17260;BME280;8746;49.230;9.220;2023-08-06T02:56:49;98918.13;;;15.05;100.00
17260;BME280;8746;49.230;9.220;2023-08-06T02:59:15;98927.28;;;15.01;100.00
17260;BME280;8746;49.230;9.220;2023-08-06T03:01:40;98921.25;;;14.99;100.00
17260;BME280;8746;49.230;9.220;2023-08-06T03:04:06;98918.97;;;15.05;100.00
17260;BME280;8746;49.230;9.220;2023-08-06T03:06:31;98913.66;;;15.05;100.00
17260;BME280;8746;49.230;9.220;2023-08-06T03:08:57;98912.56;;;15.08;100.00
17260;BME280;8746;49.230;9.220;2023-08-06T03:11:22;98918.47;;;15.00;100.00
17260;BME280;8746;49.230;9.220;2023-08-06T03:13:48;98917.63;;;15.00;100.00
17260;BME280;8746;49.230;9.220;2023-08-06T03:16:13;98920.38;;;14.98;100.00
17260;BME280;8746;49.230;9.220;2023-08-06T03:18:39;98913.91;;;15.02;100.00
17260;BME280;8746;49.230;9.220;2023-08-06T03:21:04;98910.84;;;14.96;100.00
17260;BME280;8746;49.230;9.220;2023-08-06T03:23:29;98910.63;;;14.99;100.00
17260;BME280;8746;49.230;9.220;2023-08-06T03:25:55;98906.03;;;15.01;100.00
17260;BME280;8746;49.230;9.220;2023-08-06T03:28:20;98911.47;;;14.99;100.00
17260;BME280;8746;49.230;9.220;2023-08-06T03:30:47;98902.88;;;14.96;100.00
17260;BME280;8746;49.230;9.220;2023-08-06T03:33:12;98904.47;;;14.98;100.00
17260;BME280;8746;49.230;9.220;2023-08-06T03:35:37;98903.38;;;15.01;100.00
17260;BME280;8746;49.230;9.220;2023-08-06T03:38:03;98901.69;;;15.00;100.00
17260;BME280;8746;49.230;9.220;2023-08-06T03:40:28;98894.06;;;14.95;100.00
17260;BME280;8746;49.230;9.220;2023-08-06T03:42:53;98893.72;;;15.00;100.00
17260;BME280;8746;49.230;9.220;2023-08-06T03:45:19;98903.91;;;15.06;100.00
17260;BME280;8746;49.230;9.220;2023-08-06T03:47:44;98905.94;;;15.02;100.00
17260;BME280;8746;49.230;9.220;2023-08-06T03:50:10;98913.31;;;15.10;100.00
17260;BME280;8746;49.230;9.220;2023-08-06T03:52:35;98913.03;;;15.02;100.00
17260;BME280;8746;49.230;9.220;2023-08-06T03:55:01;98915.56;;;15.03;100.00
17260;BME280;8746;49.230;9.220;2023-08-06T03:57:26;98913.53;;;15.07;100.00
17260;BME280;8746;49.230;9.220;2023-08-06T03:59:51;98906.56;;;15.06;100.00
17260;BME280;8746;49.230;9.220;2023-08-06T04:02:18;98919.31;;;15.01;100.00
17260;BME280;8746;49.230;9.220;2023-08-06T04:04:43;98915.47;;;15.05;100.00
17260;BME280;8746;49.230;9.220;2023-08-06T04:07:09;98920.38;;;14.98;100.00
17260;BME280;8746;49.230;9.220;2023-08-06T04:09:51;98926.16;;;14.92;100.00
17260;BME280;8746;49.230;9.220;2023-08-06T04:12:17;98928.94;;;14.90;100.00
17260;BME280;8746;49.230;9.220;2023-08-06T04:14:42;98931.31;;;14.82;100.00
17260;BME280;8746;49.230;9.220;2023-08-06T04:17:07;98926.34;;;14.78;100.00
17260;BME280;8746;49.230;9.220;2023-08-06T04:19:33;98923.19;;;14.72;100.00
17260;BME280;8746;49.230;9.220;2023-08-06T04:21:58;98912.06;;;14.67;100.00
17260;BME280;8746;49.230;9.220;2023-08-06T04:24:23;98919.94;;;14.56;100.00
17260;BME280;8746;49.230;9.220;2023-08-06T04:26:48;98918.44;;;14.52;100.00
17260;BME280;8746;49.230;9.220;2023-08-06T04:29:14;98924.84;;;14.49;100.00
17260;BME280;8746;49.230;9.220;2023-08-06T04:31:39;98927.72;;;14.46;100.00
17260;BME280;8746;49.230;9.220;2023-08-06T04:34:04;98940.00;;;14.47;100.00
17260;BME280;8746;49.230;9.220;2023-08-06T04:36:31;98938.16;;;14.36;100.00
17260;BME280;8746;49.230;9.220;2023-08-06T04:38:56;98926.97;;;14.44;100.00
17260;BME280;8746;49.230;9.220;2023-08-06T04:41:21;98928.44;;;14.48;100.00
17260;BME280;8746;49.230;9.220;2023-08-06T04:43:47;98926.69;;;14.36;100.00
17260;BME280;8746;49.230;9.220;2023-08-06T04:46:12;98920.72;;;14.45;100.00
17260;BME280;8746;49.230;9.220;2023-08-06T04:48:37;98922.06;;;14.51;100.00
17260;BME280;8746;49.230;9.220;2023-08-06T04:51:03;98915.91;;;14.50;100.00
17260;BME280;8746;49.230;9.220;2023-08-06T04:53:28;98919.94;;;14.56;100.00
17260;BME280;8746;49.230;9.220;2023-08-06T04:55:53;98916.22;;;14.58;100.00
17260;BME280;8746;49.230;9.220;2023-08-06T04:58:18;98913.78;;;14.55;100.00
17260;BME280;8746;49.230;9.220;2023-08-06T05:00:44;98920.31;;;14.63;100.00
17260;BME280;8746;49.230;9.220;2023-08-06T05:03:09;98925.13;;;14.57;100.00
17260;BME280;8746;49.230;9.220;2023-08-06T05:05:34;98929.69;;;14.55;100.00
17260;BME280;8746;49.230;9.220;2023-08-06T05:08:00;98920.78;;;14.56;100.00
17260;BME280;8746;49.230;9.220;2023-08-06T05:10:25;98932.03;;;14.60;100.00
17260;BME280;8746;49.230;9.220;2023-08-06T05:12:51;98934.09;;;14.43;100.00
17260;BME280;8746;49.230;9.220;2023-08-06T05:15:17;98937.47;;;14.46;100.00
17260;BME280;8746;49.230;9.220;2023-08-06T05:17:42;98942.41;;;14.39;100.00
17260;BME280;8746;49.230;9.220;2023-08-06T05:20:08;98945.69;;;14.30;100.00
17260;BME280;8746;49.230;9.220;2023-08-06T05:22:33;98942.22;;;14.16;100.00
17260;BME280;8746;49.230;9.220;2023-08-06T05:24:58;98946.19;;;13.98;100.00
17260;BME280;8746;49.230;9.220;2023-08-06T05:27:24;98936.44;;;13.85;100.00
17260;BME280;8746;49.230;9.220;2023-08-06T05:29:49;98938.66;;;13.91;100.00
17260;BME280;8746;49.230;9.220;2023-08-06T05:32:15;98936.44;;;13.85;100.00
17260;BME280;8746;49.230;9.220;2023-08-06T05:34:40;98939.53;;;13.79;100.00
17260;BME280;8746;49.230;9.220;2023-08-06T05:37:06;98939.00;;;13.74;100.00
17260;BME280;8746;49.230;9.220;2023-08-06T05:39:32;98943.69;;;13.70;100.00
17260;BME280;8746;49.230;9.220;2023-08-06T05:41:57;98938.38;;;13.70;100.00
17260;BME280;8746;49.230;9.220;2023-08-06T05:44:25;98940.47;;;13.78;100.00
17260;BME280;8746;49.230;9.220;2023-08-06T05:46:51;98940.03;;;13.71;100.00
17260;BME280;8746;49.230;9.220;2023-08-06T05:49:16;98939.94;;;13.86;100.00
17260;BME280;8746;49.230;9.220;2023-08-06T05:51:41;98937.19;;;13.87;100.00
17260;BME280;8746;49.230;9.220;2023-08-06T05:54:07;98943.03;;;13.92;100.00
17260;BME280;8746;49.230;9.220;2023-08-06T05:56:32;98947.56;;;13.90;100.00
17260;BME280;8746;49.230;9.220;2023-08-06T05:58:58;98947.03;;;13.98;100.00
17260;BME280;8746;49.230;9.220;2023-08-06T06:01:23;98945.56;;;14.07;100.00
17260;BME280;8746;49.230;9.220;2023-08-06T06:03:48;98944.03;;;14.16;100.00
17260;BME280;8746;49.230;9.220;2023-08-06T06:06:14;98943.28;;;14.26;100.00
17260;BME280;8746;49.230;9.220;2023-08-06T06:08:40;98940.69;;;14.38;100.00
17260;BME280;8746;49.230;9.220;2023-08-06T06:11:05;98939.06;;;14.48;100.00
17260;BME280;8746;49.230;9.220;2023-08-06T06:13:31;98939.25;;;14.58;100.00
17260;BME280;8746;49.230;9.220;2023-08-06T06:15:56;98941.88;;;14.71;100.00
17260;BME280;8746;49.230;9.220;2023-08-06T06:18:22;98937.81;;;14.78;100.00
17260;BME280;8746;49.230;9.220;2023-08-06T06:20:48;98940.84;;;14.85;100.00
17260;BME280;8746;49.230;9.220;2023-08-06T06:23:13;98939.94;;;14.97;100.00
17260;BME280;8746;49.230;9.220;2023-08-06T06:25:57;98931.41;;;15.05;100.00
17260;BME280;8746;49.230;9.220;2023-08-06T06:28:22;98941.19;;;15.04;100.00
17260;BME280;8746;49.230;9.220;2023-08-06T06:30:48;98944.44;;;15.08;100.00
17260;BME280;8746;49.230;9.220;2023-08-06T06:33:13;98941.56;;;15.11;100.00
17260;BME280;8746;49.230;9.220;2023-08-06T06:35:38;98942.97;;;14.93;100.00
17260;BME280;8746;49.230;9.220;2023-08-06T06:38:04;98943.41;;;14.86;100.00
17260;BME280;8746;49.230;9.220;2023-08-06T06:40:29;98940.78;;;15.22;100.00
17260;BME280;8746;49.230;9.220;2023-08-06T06:42:54;98939.19;;;15.19;100.00
17260;BME280;8746;49.230;9.220;2023-08-06T06:45:20;98947.69;;;15.00;100.00
17260;BME280;8746;49.230;9.220;2023-08-06T06:47:45;98943.84;;;14.80;100.00
17260;BME280;8746;49.230;9.220;2023-08-06T06:50:10;98939.09;;;14.72;100.00
17260;BME280;8746;49.230;9.220;2023-08-06T06:52:37;98946.25;;;14.72;100.00
17260;BME280;8746;49.230;9.220;2023-08-06T06:55:03;98947.63;;;14.65;100.00
17260;BME280;8746;49.230;9.220;2023-08-06T06:57:28;98953.38;;;14.58;100.00
17260;BME280;8746;49.230;9.220;2023-08-06T06:59:54;98956.56;;;14.51;100.00
17260;BME280;8746;49.230;9.220;2023-08-06T07:02:19;98954.91;;;14.50;100.00
17260;BME280;8746;49.230;9.220;2023-08-06T07:04:45;98960.72;;;14.55;100.00
17260;BME280;8746;49.230;9.220;2023-08-06T07:07:10;98959.47;;;14.35;100.00
17260;BME280;8746;49.230;9.220;2023-08-06T07:09:35;98964.19;;;14.18;100.00
17260;BME280;8746;49.230;9.220;2023-08-06T07:12:01;98959.72;;;14.32;100.00
17260;BME280;8746;49.230;9.220;2023-08-06T07:14:28;98956.50;;;14.39;100.00
17260;BME280;8746;49.230;9.220;2023-08-06T07:16:53;98959.91;;;14.41;100.00
17260;BME280;8746;49.230;9.220;2023-08-06T07:19:18;98965.16;;;14.54;100.00
17260;BME280;8746;49.230;9.220;2023-08-06T07:21:44;98960.72;;;14.55;100.00
17260;BME280;8746;49.230;9.220;2023-08-06T07:24:09;98958.38;;;14.50;100.00
17260;BME280;8746;49.230;9.220;2023-08-06T07:26:34;98961.47;;;14.44;100.00
17260;BME280;8746;49.230;9.220;2023-08-06T07:29:00;98957.75;;;14.47;100.00
17260;BME280;8746;49.230;9.220;2023-08-06T07:31:25;98958.38;;;14.50;100.00
17260;BME280;8746;49.230;9.220;2023-08-06T07:33:51;98953.13;;;14.62;100.00
17260;BME280;8746;49.230;9.220;2023-08-06T07:36:16;98957.31;;;14.66;100.00
17260;BME280;8746;49.230;9.220;2023-08-06T07:38:42;98958.22;;;14.65;100.00
17260;BME280;8746;49.230;9.220;2023-08-06T07:41:08;98958.72;;;14.83;100.00
17260;BME280;8746;49.230;9.220;2023-08-06T07:43:33;98955.38;;;14.68;100.00
17260;BME280;8746;49.230;9.220;2023-08-06T07:46:00;98949.59;;;14.74;100.00
17260;BME280;8746;49.230;9.220;2023-08-06T07:48:27;98964.03;;;14.83;100.00
17260;BME280;8746;49.230;9.220;2023-08-06T07:50:53;98951.03;;;14.91;100.00
17260;BME280;8746;49.230;9.220;2023-08-06T07:53:21;98950.19;;;14.90;100.00
17260;BME280;8746;49.230;9.220;2023-08-06T07:55:51;98951.88;;;14.92;100.00
17260;BME280;8746;49.230;9.220;2023-08-06T07:58:17;98940.97;;;15.07;100.00
17260;BME280;8746;49.230;9.220;2023-08-06T08:00:43;98946.41;;;15.06;100.00
17260;BME280;8746;49.230;9.220;2023-08-06T08:03:13;98947.34;;;15.05;100.00
17260;BME280;8746;49.230;9.220;2023-08-06T08:05:40;98950.63;;;15.09;100.00
17260;BME280;8746;49.230;9.220;2023-08-06T08:08:05;98956.50;;;15.01;100.00
17260;BME280;8746;49.230;9.220;2023-08-06T08:10:31;98949.72;;;14.97;100.00
17260;BME280;8746;49.230;9.220;2023-08-06T08:12:57;98948.28;;;14.68;100.00
17260;BME280;8746;49.230;9.220;2023-08-06T08:15:24;98952.56;;;14.82;100.00
17260;BME280;8746;49.230;9.220;2023-08-06T08:17:51;98948.09;;;14.83;100.00
17260;BME280;8746;49.230;9.220;2023-08-06T08:20:17;98944.00;;;14.90;100.00
17260;BME280;8746;49.230;9.220;2023-08-06T08:22:42;98950.22;;;14.78;100.00
17260;BME280;8746;49.230;9.220;2023-08-06T08:25:07;98941.13;;;14.69;100.00
17260;BME280;8746;49.230;9.220;2023-08-06T08:27:33;98947.03;;;14.85;100.00
17260;BME280;8746;49.230;9.220;2023-08-06T08:29:58;98948.31;;;14.80;100.00
17260;BME280;8746;49.230;9.220;2023-08-06T08:32:23;98943.66;;;14.95;100.00
17260;BME280;8746;49.230;9.220;2023-08-06T08:34:49;98948.03;;;14.96;100.00
17260;BME280;8746;49.230;9.220;2023-08-06T08:37:14;98942.75;;;15.07;100.00
17260;BME280;8746;49.230;9.220;2023-08-06T08:39:39;98933.38;;;15.14;100.00
17260;BME280;8746;49.230;9.220;2023-08-06T08:42:06;98941.34;;;15.14;100.00
17260;BME280;8746;49.230;9.220;2023-08-06T08:44:32;98932.44;;;15.27;100.00
17260;BME280;8746;49.230;9.220;2023-08-06T08:46:59;98937.19;;;15.46;100.00
17260;BME280;8746;49.230;9.220;2023-08-06T08:49:26;98944.56;;;15.42;100.00
17260;BME280;8746;49.230;9.220;2023-08-06T08:51:53;98937.06;;;15.47;100.00
17260;BME280;8746;49.230;9.220;2023-08-06T08:54:18;98935.34;;;15.35;100.00
17260;BME280;8746;49.230;9.220;2023-08-06T08:56:45;98937.53;;;15.41;100.00
17260;BME280;8746;49.230;9.220;2023-08-06T08:59:11;98931.25;;;15.31;100.00
17260;BME280;8746;49.230;9.220;2023-08-06T09:01:37;98929.16;;;15.23;100.00
17260;BME280;8746;49.230;9.220;2023-08-06T09:04:05;98935.34;;;15.23;100.00
17260;BME280;8746;49.230;9.220;2023-08-06T09:06:32;98938.28;;;15.43;100.00
17260;BME280;8746;49.230;9.220;2023-08-06T09:09:16;98931.53;;;15.39;100.00
17260;BME280;8746;49.230;9.220;2023-08-06T09:11:43;98928.63;;;15.53;100.00
17260;BME280;8746;49.230;9.220;2023-08-06T09:14:11;98932.28;;;15.64;100.00
17260;BME280;8746;49.230;9.220;2023-08-06T09:16:36;98928.41;;;15.68;100.00
17260;BME280;8746;49.230;9.220;2023-08-06T09:19:11;98936.84;;;15.62;100.00
17260;BME280;8746;49.230;9.220;2023-08-06T09:21:43;98933.72;;;15.68;100.00
17260;BME280;8746;49.230;9.220;2023-08-06T09:24:12;98935.91;;;15.74;100.00
17260;BME280;8746;49.230;9.220;2023-08-06T09:26:42;98926.84;;;15.77;100.00
17260;BME280;8746;49.230;9.220;2023-08-06T09:29:08;98938.34;;;15.77;100.00
17260;BME280;8746;49.230;9.220;2023-08-06T09:31:50;98939.50;;;15.50;100.00
17260;BME280;8746;49.230;9.220;2023-08-06T09:34:20;98943.25;;;15.59;100.00
17260;BME280;8746;49.230;9.220;2023-08-06T09:36:48;98937.81;;;15.61;100.00
17260;BME280;8746;49.230;9.220;2023-08-06T09:39:17;98939.53;;;15.62;100.00
17260;BME280;8746;49.230;9.220;2023-08-06T09:41:43;98938.84;;;15.82;100.00
17260;BME280;8746;49.230;9.220;2023-08-06T09:44:18;98944.56;;;15.42;100.00
17260;BME280;8746;49.230;9.220;2023-08-06T09:46:54;98940.16;;;15.18;100.00
17260;BME280;8746;49.230;9.220;2023-08-06T09:49:25;98948.13;;;15.18;100.00
17260;BME280;8746;49.230;9.220;2023-08-06T09:51:52;98954.94;;;15.10;100.00
17260;BME280;8746;49.230;9.220;2023-08-06T09:54:22;98938.00;;;15.35;100.00
17260;BME280;8746;49.230;9.220;2023-08-06T09:56:47;98936.38;;;15.57;100.00
17260;BME280;8746;49.230;9.220;2023-08-06T09:59:13;98945.56;;;15.64;100.00
17260;BME280;8746;49.230;9.220;2023-08-06T10:01:39;98940.25;;;15.75;100.00
17260;BME280;8746;49.230;9.220;2023-08-06T10:04:05;98947.03;;;15.79;100.00
17260;BME280;8746;49.230;9.220;2023-08-06T10:06:34;98947.75;;;15.81;100.00
17260;BME280;8746;49.230;9.220;2023-08-06T10:09:06;98946.34;;;16.00;100.00
17260;BME280;8746;49.230;9.220;2023-08-06T10:11:33;98941.03;;;16.11;100.00
17260;BME280;8746;49.230;9.220;2023-08-06T10:14:04;98937.16;;;16.15;100.00
17260;BME280;8746;49.230;9.220;2023-08-06T10:16:32;98946.69;;;16.18;100.00
17260;BME280;8746;49.230;9.220;2023-08-06T10:18:58;98942.09;;;16.09;100.00
17260;BME280;8746;49.230;9.220;2023-08-06T10:21:24;98946.59;;;16.08;100.00
17260;BME280;8746;49.230;9.220;2023-08-06T10:23:56;98941.75;;;16.13;100.00
17260;BME280;8746;49.230;9.220;2023-08-06T10:26:28;98935.09;;;16.19;100.00
17260;BME280;8746;49.230;9.220;2023-08-06T10:28:54;98936.91;;;16.30;100.00
17260;BME280;8746;49.230;9.220;2023-08-06T10:31:20;98953.34;;;16.12;100.00
17260;BME280;8746;49.230;9.220;2023-08-06T10:33:47;98944.41;;;16.13;100.00
17260;BME280;8746;49.230;9.220;2023-08-06T10:36:14;98950.94;;;16.09;100.00
17260;BME280;8746;49.230;9.220;2023-08-06T10:38:47;98946.75;;;15.60;100.00
17260;BME280;8746;49.230;9.220;2023-08-06T10:41:29;98944.41;;;15.32;100.00
17260;BME280;8746;49.230;9.220;2023-08-06T10:44:07;98946.91;;;15.22;100.00
17260;BME280;8746;49.230;9.220;2023-08-06T10:46:33;98938.44;;;15.06;100.00
17260;BME280;8746;49.230;9.220;2023-08-06T10:48:59;98951.09;;;14.78;100.00
17260;BME280;8746;49.230;9.220;2023-08-06T10:51:24;98950.94;;;14.68;100.00
17260;BME280;8746;49.230;9.220;2023-08-06T10:53:50;98943.59;;;14.72;100.00
17260;BME280;8746;49.230;9.220;2023-08-06T10:56:16;98942.97;;;14.68;100.00
17260;BME280;8746;49.230;9.220;2023-08-06T10:58:43;98944.75;;;14.68;100.00
17260;BME280;8746;49.230;9.220;2023-08-06T11:01:10;98938.50;;;14.69;100.00
17260;BME280;8746;49.230;9.220;2023-08-06T11:03:36;98944.22;;;14.63;100.00
17260;BME280;8746;49.230;9.220;2023-08-06T11:06:01;98943.78;;;14.69;100.00
17260;BME280;8746;49.230;9.220;2023-08-06T11:08:36;98946.50;;;14.80;100.00
17260;BME280;8746;49.230;9.220;2023-08-06T11:11:13;98946.28;;;14.83;100.00
17260;BME280;8746;49.230;9.220;2023-08-06T11:13:48;98948.47;;;14.89;100.00
17260;BME280;8746;49.230;9.220;2023-08-06T11:16:15;98946.56;;;14.92;100.00
17260;BME280;8746;49.230;9.220;2023-08-06T11:18:41;98949.09;;;14.93;100.00
17260;BME280;8746;49.230;9.220;2023-08-06T11:21:09;98960.84;;;15.02;100.00
17260;BME280;8746;49.230;9.220;2023-08-06T11:23:35;98968.59;;;15.05;100.00
17260;BME280;8746;49.230;9.220;2023-08-06T11:26:01;98954.53;;;15.16;100.00
17260;BME280;8746;49.230;9.220;2023-08-06T11:28:27;98957.34;;;15.01;100.00
17260;BME280;8746;49.230;9.220;2023-08-06T11:30:53;98960.97;;;15.00;100.00
17260;BME280;8746;49.230;9.220;2023-08-06T11:33:27;98964.13;;;15.05;100.00
17260;BME280;8746;49.230;9.220;2023-08-06T11:35:54;98965.75;;;15.19;100.00
17260;BME280;8746;49.230;9.220;2023-08-06T11:38:20;98963.69;;;15.23;100.00
17260;BME280;8746;49.230;9.220;2023-08-06T11:40:47;98961.88;;;15.12;100.00
17260;BME280;8746;49.230;9.220;2023-08-06T11:43:13;98976.13;;;15.11;100.00
17260;BME280;8746;49.230;9.220;2023-08-06T11:45:38;98984.38;;;15.19;100.00
17260;BME280;8746;49.230;9.220;2023-08-06T11:48:05;98977.56;;;15.15;100.00
17260;BME280;8746;49.230;9.220;2023-08-06T11:50:30;98972.06;;;14.94;100.00
17260;BME280;8746;49.230;9.220;2023-08-06T11:53:00;98972.06;;;14.94;100.00
17260;BME280;8746;49.230;9.220;2023-08-06T11:55:27;98977.81;;;14.88;100.00
17260;BME280;8746;49.230;9.220;2023-08-06T11:57:54;98984.03;;;14.76;100.00
17260;BME280;8746;49.230;9.220;2023-08-06T12:00:20;98991.31;;;14.85;100.00
17260;BME280;8746;49.230;9.220;2023-08-06T12:02:49;98994.03;;;14.72;100.00
17260;BME280;8746;49.230;9.220;2023-08-06T12:05:20;99001.38;;;14.68;100.00
17260;BME280;8746;49.230;9.220;2023-08-06T12:07:50;99006.97;;;14.51;100.00
17260;BME280;8746;49.230;9.220;2023-08-06T12:10:16;99017.84;;;14.48;100.00
17260;BME280;8746;49.230;9.220;2023-08-06T12:12:42;99012.09;;;14.41;100.00
17260;BME280;8746;49.230;9.220;2023-08-06T12:15:08;98997.06;;;14.29;100.00
17260;BME280;8746;49.230;9.220;2023-08-06T12:17:35;99007.47;;;14.32;100.00
17260;BME280;8746;49.230;9.220;2023-08-06T12:20:02;99017.31;;;14.30;100.00
17260;BME280;8746;49.230;9.220;2023-08-06T12:22:29;99024.97;;;14.34;100.00
17260;BME280;8746;49.230;9.220;2023-08-06T12:24:57;99025.91;;;14.46;100.00
17260;BME280;8746;49.230;9.220;2023-08-06T12:27:22;99024.72;;;14.63;100.00
17260;BME280;8746;49.230;9.220;2023-08-06T12:29:48;99029.91;;;14.65;100.00
17260;BME280;8746;49.230;9.220;2023-08-06T12:32:14;99032.63;;;14.89;100.00
17260;BME280;8746;49.230;9.220;2023-08-06T12:34:40;99042.81;;;14.82;100.00
17260;BME280;8746;49.230;9.220;2023-08-06T12:37:06;99039.66;;;14.77;100.00
17260;BME280;8746;49.230;9.220;2023-08-06T12:39:36;99043.72;;;14.70;100.00
17260;BME280;8746;49.230;9.220;2023-08-06T12:42:03;99054.13;;;14.47;100.00
17260;BME280;8746;49.230;9.220;2023-08-06T12:44:28;99072.69;;;14.47;100.00
17260;BME280;8746;49.230;9.220;2023-08-06T12:46:54;99055.81;;;14.48;100.00
17260;BME280;8746;49.230;9.220;2023-08-06T12:49:19;99064.34;;;14.53;100.00
17260;BME280;8746;49.230;9.220;2023-08-06T12:51:51;99068.22;;;14.61;100.00
17260;BME280;8746;49.230;9.220;2023-08-06T12:54:16;99071.00;;;14.59;100.00
17260;BME280;8746;49.230;9.220;2023-08-06T12:56:42;99079.59;;;14.63;100.00